CYNL

METAR CYNL 242100Z AUTO 20011KT 9SM CLR 12/07 A2978 RMK AO1 PRESFR SLP104
METAR
LOCATION
CYNL
DATE - TIME
242100Z
WIND
200 TRUE @ 11 KNOTS
VISIBILITY
9SM
RUNWAY VISUAL RANGE
NOT REPORTED
WEATHER
CLOUDINESS
CLR
TEMP / DEWPOINT
12 ºC / 7 ºC
ALTIMETER
29.78 in. Hg
RECENT WEATHER
NOT REPORTED
WIND SHEAR
NOT REPORTED
REMARKS
RMK AO1 PRESFR SLP104
SEA LEVEL PRESSURE: hPa

CYNL

METAR CYNL 242000Z AUTO 18010G16KT 9SM FEW150 10/05 A2981 RMK AO1 PRESFR SLP118
METAR
LOCATION
CYNL
DATE - TIME
242000Z
WIND
180 TRUE @ 10 KNOTS GUSTS 16 KNOTS
VISIBILITY
9SM
RUNWAY VISUAL RANGE
NOT REPORTED
WEATHER
CLOUDINESS
FEW150
TEMP / DEWPOINT
10 ºC / 5 ºC
ALTIMETER
29.81 in. Hg
RECENT WEATHER
NOT REPORTED
WIND SHEAR
NOT REPORTED
REMARKS
RMK AO1 PRESFR SLP118
SEA LEVEL PRESSURE: hPa

CYNL

METAR CYNL 241900Z AUTO 17009KT 9SM FEW190 07/04 A2987 RMK AO1 PRESFR SLP138
METAR
LOCATION
CYNL
DATE - TIME
241900Z
WIND
170 TRUE @ 9 KNOTS
VISIBILITY
9SM
RUNWAY VISUAL RANGE
NOT REPORTED
WEATHER
CLOUDINESS
FEW190
TEMP / DEWPOINT
7 ºC / 4 ºC
ALTIMETER
29.87 in. Hg
RECENT WEATHER
NOT REPORTED
WIND SHEAR
NOT REPORTED
REMARKS
RMK AO1 PRESFR SLP138
SEA LEVEL PRESSURE: hPa

Your time UTC time
 
 
Weather data provided by AXYS Technologies Inc., www.axystechnologies.com
 
Station History